Time;durP1;ratioP1;P1;durP2;ratioP2;P2;SDS_P1;SDS_P2;PMS_P1;PMS_P2;Temp;Humidity;BMP_temperature;BMP_pressure;BME280_temperature;BME280_humidity;BME280_pressure;Samples;Min_cycle;Max_cycle;Signal;HPM_P1;HPM_P2
2022/08/15 00:00:27;;;;;;;14.90;10.30;;;;;;;22.97;72.14;99799.24;103436;1280;95238;-66
2022/08/15 00:03:04;;;;;;;15.70;10.40;;;;;;;23.03;71.87;99796.71;103256;1278;139678;-66
2022/08/15 00:05:39;;;;;;;15.50;11.00;;;;;;;23.05;71.76;99785.35;103445;1279;99644;-65
2022/08/15 00:08:09;;;;;;;15.30;11.00;;;;;;;23.04;71.73;99787.23;103437;1278;108919;-67
2022/08/15 00:11:07;;;;;;;13.90;11.00;;;;;;;23.01;71.77;99789.46;103308;1279;95249;-67
2022/08/15 00:13:54;;;;;;;15.00;11.10;;;;;;;23.01;71.84;99788.89;103288;1278;95740;-67
2022/08/15 00:16:32;;;;;;;14.90;10.90;;;;;;;23.03;71.83;99783.73;103498;1279;138985;-67
2022/08/15 00:19:08;;;;;;;15.60;10.80;;;;;;;23.02;72.04;99783.45;103336;1277;98005;-66
2022/08/15 00:21:43;;;;;;;14.70;10.20;;;;;;;23.00;71.89;99780.11;103206;1278;139012;-67
2022/08/15 00:24:19;;;;;;;14.70;10.90;;;;;;;22.96;71.88;99779.61;103453;1278;95513;-66
2022/08/15 00:26:59;;;;;;;17.60;10.90;;;;;;;22.91;71.99;99782.21;103344;1278;138955;-66
2022/08/15 00:29:31;;;;;;;14.30;10.40;;;;;;;22.88;72.15;99783.02;103733;1278;107587;-67
2022/08/15 00:32:11;;;;;;;14.70;10.60;;;;;;;22.82;72.38;99778.29;103488;1280;99176;-66
2022/08/15 00:34:59;;;;;;;15.40;10.50;;;;;;;22.76;72.64;99778.45;103388;1278;108334;-68
2022/08/15 00:37:28;;;;;;;14.60;10.70;;;;;;;22.67;72.71;99779.02;103461;1279;96377;-67
2022/08/15 00:39:56;;;;;;;15.30;10.70;;;;;;;22.68;72.76;99782.92;103210;1279;139694;-67
2022/08/15 00:42:25;;;;;;;15.20;10.90;;;;;;;22.65;72.86;99789.14;103403;1277;110026;-66
2022/08/15 00:44:58;;;;;;;13.80;11.20;;;;;;;22.65;73.13;99788.46;103334;1279;139299;-66
2022/08/15 00:47:42;;;;;;;14.10;10.10;;;;;;;22.69;72.82;99791.92;103471;1278;108232;-67
2022/08/15 00:50:14;;;;;;;14.70;10.20;;;;;;;22.64;72.94;99790.49;103399;1279;139402;-67
2022/08/15 00:53:06;;;;;;;15.20;11.10;;;;;;;22.68;72.80;99791.45;103460;1278;95178;-67
2022/08/15 00:55:42;;;;;;;15.20;11.10;;;;;;;22.71;72.67;99791.88;103560;1279;110315;-67
2022/08/15 00:58:16;;;;;;;16.00;11.00;;;;;;;22.70;72.54;99792.56;103502;1278;138891;-66
2022/08/15 01:01:06;;;;;;;14.90;10.60;;;;;;;22.69;72.44;99792.21;103411;1279;108402;-66
2022/08/15 01:03:40;;;;;;;15.70;10.90;;;;;;;22.69;72.43;99789.54;103301;1279;141973;-66
2022/08/15 01:06:24;;;;;;;14.30;10.50;;;;;;;22.67;72.52;99786.96;103425;1278;95219;-67
2022/08/15 01:08:54;;;;;;;14.40;10.80;;;;;;;22.68;72.48;99780.54;103489;1279;139183;-67
2022/08/15 01:11:49;;;;;;;14.30;10.70;;;;;;;22.70;72.33;99773.50;103342;1279;99949;-66
2022/08/15 01:14:18;;;;;;;15.90;11.90;;;;;;;22.73;71.95;99771.45;103452;1279;138598;-66
2022/08/15 01:17:08;;;;;;;15.70;11.40;;;;;;;22.70;72.10;99764.82;103412;1279;95311;-68
2022/08/15 01:19:45;;;;;;;15.70;11.50;;;;;;;22.68;72.27;99762.34;103555;1277;97015;-66
2022/08/15 01:22:34;;;;;;;15.30;11.30;;;;;;;22.64;72.51;99759.75;103366;1279;139985;-66
2022/08/15 01:25:04;;;;;;;14.20;11.10;;;;;;;22.59;72.88;99759.31;103450;1279;100084;-66
2022/08/15 01:28:06;;;;;;;15.80;11.70;;;;;;;22.52;73.24;99760.40;103320;1280;139216;-66
2022/08/15 01:30:56;;;;;;;17.00;12.50;;;;;;;22.38;73.68;99759.42;103235;1279;95274;-67
2022/08/15 01:33:39;;;;;;;16.20;12.00;;;;;;;22.33;73.97;99758.05;103648;1280;139726;-67
2022/08/15 01:36:09;;;;;;;15.40;12.20;;;;;;;22.30;74.22;99758.99;103753;1280;108826;-67
2022/08/15 01:39:40;;;;;;;15.30;11.70;;;;;;;22.28;74.29;99761.35;103288;1280;139203;-67
2022/08/15 01:42:16;;;;;;;15.50;11.30;;;;;;;22.31;74.23;99762.16;103203;1278;109451;-67
2022/08/15 01:45:00;;;;;;;16.20;11.80;;;;;;;22.32;74.18;99764.12;103494;1278;139765;-68
2022/08/15 01:47:52;;;;;;;15.80;11.50;;;;;;;22.30;74.41;99765.52;103665;1279;95541;-68
2022/08/15 01:50:32;;;;;;;15.20;11.40;;;;;;;22.26;74.44;99768.81;103353;1279;139163;-67
2022/08/15 01:53:23;;;;;;;15.00;11.30;;;;;;;22.26;74.51;99766.77;103700;1278;99343;-67
2022/08/15 01:56:20;;;;;;;14.50;11.70;;;;;;;22.23;74.69;99767.91;103412;1280;108554;-67
2022/08/15 01:59:10;;;;;;;15.20;11.50;;;;;;;22.27;74.59;99769.45;103882;1278;95240;-65
2022/08/15 02:01:57;;;;;;;14.40;11.20;;;;;;;22.31;74.53;99771.07;103534;1279;96460;-67
2022/08/15 02:04:31;;;;;;;15.00;11.80;;;;;;;22.31;74.72;99768.14;103546;1279;138888;-66
2022/08/15 02:07:08;;;;;;;16.10;12.00;;;;;;;22.27;74.82;99774.72;103412;1278;99385;-67
2022/08/15 02:09:46;;;;;;;16.20;11.80;;;;;;;22.20;75.11;99766.56;103341;1280;139647;-67
2022/08/15 02:12:30;;;;;;;16.10;11.80;;;;;;;22.26;74.90;99761.70;103426;1280;96001;-66
2022/08/15 02:15:21;;;;;;;17.10;11.30;;;;;;;22.33;74.70;99747.05;103339;1279;139455;-67
2022/08/15 02:17:53;;;;;;;16.60;12.10;;;;;;;22.28;74.77;99743.81;103508;1277;109654;-66
2022/08/15 02:20:23;;;;;;;16.30;12.10;;;;;;;22.25;75.03;99741.21;103237;1279;140807;-67
2022/08/15 02:22:55;;;;;;;15.80;11.90;;;;;;;22.23;75.24;99744.62;103432;1278;108651;-66
2022/08/15 02:25:24;;;;;;;14.10;11.60;;;;;;;22.23;75.23;99744.08;103479;1279;96869;-66
2022/08/15 02:27:55;;;;;;;15.80;12.40;;;;;;;22.18;75.25;99746.25;103215;1279;139228;-66
2022/08/15 02:30:27;;;;;;;16.20;12.50;;;;;;;22.22;75.25;99739.96;103299;1280;109930;-66
2022/08/15 02:33:01;;;;;;;14.90;11.60;;;;;;;22.22;75.30;99740.16;103389;1278;140022;-66
2022/08/15 02:35:30;;;;;;;16.40;12.00;;;;;;;22.16;75.34;99740.15;103378;1278;108788;-66
2022/08/15 02:38:04;;;;;;;15.10;12.20;;;;;;;22.13;75.59;99739.52;103434;1279;95245;-66
2022/08/15 02:40:46;;;;;;;15.80;12.60;;;;;;;22.06;75.89;99744.06;103407;1280;95227;-67
2022/08/15 02:43:21;;;;;;;15.10;11.80;;;;;;;22.03;76.07;99739.96;103388;1278;109719;-67
2022/08/15 02:45:50;;;;;;;14.40;12.40;;;;;;;22.06;75.89;99739.20;103418;1278;140227;-67
2022/08/15 02:48:43;;;;;;;16.30;12.10;;;;;;;22.04;75.90;99737.72;103431;1278;107643;-67
2022/08/15 02:51:30;;;;;;;15.40;12.30;;;;;;;22.04;75.95;99729.74;103298;1278;139380;-68
2022/08/15 02:54:17;;;;;;;17.00;12.50;;;;;;;22.05;76.02;99722.28;103397;1280;96026;-67
2022/08/15 02:57:09;;;;;;;16.30;11.40;;;;;;;22.05;75.95;99722.42;103329;1279;140493;-66
2022/08/15 02:59:42;;;;;;;15.80;12.60;;;;;;;22.01;76.10;99724.79;103427;1279;98439;-66
2022/08/15 03:02:15;;;;;;;15.90;12.20;;;;;;;21.94;76.22;99727.77;103274;1278;139631;-66
2022/08/15 03:05:00;;;;;;;14.90;11.80;;;;;;;21.91;76.35;99729.98;103409;1280;95216;-67
2022/08/15 03:07:29;;;;;;;16.90;11.90;;;;;;;21.93;76.32;99729.64;103378;1279;95364;-67
2022/08/15 03:09:59;;;;;;;16.10;11.50;;;;;;;21.92;76.41;99729.15;103360;1278;139464;-66
2022/08/15 03:12:53;;;;;;;14.60;11.80;;;;;;;21.89;76.57;99731.38;103485;1280;100064;-67
2022/08/15 03:15:31;;;;;;;14.50;12.30;;;;;;;21.91;76.45;99728.02;103388;1280;139557;-68
2022/08/15 03:18:02;;;;;;;15.10;11.40;;;;;;;21.94;76.49;99731.13;103314;1280;95613;-68
2022/08/15 03:20:31;;;;;;;16.60;12.20;;;;;;;21.94;76.33;99734.27;103231;1277;139988;-66
2022/08/15 03:23:04;;;;;;;16.30;12.00;;;;;;;21.92;76.36;99747.23;103304;1278;109664;-65
2022/08/15 03:25:42;;;;;;;15.30;11.80;;;;;;;21.86;76.74;99751.35;103442;1279;98817;-66
2022/08/15 03:28:25;;;;;;;16.00;12.70;;;;;;;21.92;76.61;99744.13;103050;1278;139130;-66
2022/08/15 03:31:03;;;;;;;14.50;12.20;;;;;;;21.95;76.34;99745.17;103426;1278;95221;-66
2022/08/15 03:33:35;;;;;;;16.10;12.00;;;;;;;21.85;76.38;99741.30;103221;1279;138967;-65
2022/08/15 03:36:24;;;;;;;14.30;11.50;;;;;;;21.83;76.70;99748.84;103322;1279;109605;-65
2022/08/15 03:38:52;;;;;;;14.70;11.50;;;;;;;21.85;76.57;99753.23;104175;1278;139279;-66
2022/08/15 03:41:24;;;;;;;15.20;12.10;;;;;;;21.81;76.58;99757.05;103654;1279;108535;-67
2022/08/15 03:43:53;;;;;;;15.20;12.00;;;;;;;21.83;76.70;99753.91;103321;1278;95552;-67
2022/08/15 03:46:22;;;;;;;14.50;12.00;;;;;;;21.88;76.42;99754.05;103215;1278;138997;-66
2022/08/15 03:48:54;;;;;;;16.20;12.30;;;;;;;21.89;76.30;99751.48;103412;1278;109749;-66
2022/08/15 03:51:28;;;;;;;15.00;11.80;;;;;;;21.93;76.20;99746.96;103308;1278;139426;-66
2022/08/15 03:54:01;;;;;;;14.60;11.50;;;;;;;21.91;76.10;99739.71;103367;1278;108764;-66
2022/08/15 03:56:33;;;;;;;15.80;11.90;;;;;;;21.84;76.16;99742.61;103144;1278;139466;-66
2022/08/15 03:59:06;;;;;;;15.30;11.60;;;;;;;21.80;76.16;99743.20;103577;1280;95571;-67
2022/08/15 04:01:49;;;;;;;14.70;11.70;;;;;;;21.79;76.21;99737.71;103430;1278;109782;-66
2022/08/15 04:04:24;;;;;;;15.80;12.00;;;;;;;21.77;76.38;99727.36;103252;1278;139236;-66
2022/08/15 04:06:52;;;;;;;16.70;12.30;;;;;;;21.78;76.28;99724.92;103304;1278;108950;-66
2022/08/15 04:09:33;;;;;;;15.50;11.40;;;;;;;21.77;76.13;99718.17;103103;1278;139091;-66
2022/08/15 04:12:10;;;;;;;16.00;11.40;;;;;;;21.75;76.21;99718.53;103509;1278;95138;-66
2022/08/15 04:14:54;;;;;;;14.70;11.60;;;;;;;21.77;76.29;99721.95;103258;1278;139594;-66
2022/08/15 04:17:22;;;;;;;14.50;11.30;;;;;;;21.77;76.30;99715.95;104255;1280;98318;-66
2022/08/15 04:20:11;;;;;;;15.50;11.10;;;;;;;21.80;76.23;99718.38;103149;1280;139164;-66
2022/08/15 04:22:59;;;;;;;15.30;12.00;;;;;;;21.83;76.17;99716.38;103210;1278;96495;-65
2022/08/15 04:25:33;;;;;;;14.60;11.60;;;;;;;21.87;76.18;99719.98;103321;1280;96438;-67
2022/08/15 04:28:14;;;;;;;16.80;11.90;;;;;;;21.88;75.91;99718.42;103233;1279;138458;-69
2022/08/15 04:31:07;;;;;;;15.40;12.00;;;;;;;21.88;76.00;99714.88;103379;1278;99208;-67
2022/08/15 04:33:39;;;;;;;15.40;12.00;;;;;;;21.89;75.87;99716.23;103229;1278;139383;-66
2022/08/15 04:36:28;;;;;;;15.30;11.40;;;;;;;21.90;75.90;99715.05;103239;1278;95668;-66
2022/08/15 04:38:58;;;;;;;14.40;11.50;;;;;;;21.94;75.89;99716.17;103168;1279;139211;-66
2022/08/15 04:41:32;;;;;;;15.70;11.70;;;;;;;21.98;75.70;99715.07;103316;1278;109688;-67
2022/08/15 04:44:08;;;;;;;16.50;11.60;;;;;;;22.04;75.79;99712.26;103329;1278;99403;-66
2022/08/15 04:46:46;;;;;;;15.40;11.90;;;;;;;22.12;75.67;99716.08;103341;1278;109082;-66
2022/08/15 04:49:14;;;;;;;14.90;11.90;;;;;;;22.18;75.42;99719.77;103327;1277;95733;-66
2022/08/15 04:51:47;;;;;;;14.40;11.40;;;;;;;22.17;75.22;99719.96;103434;1278;138703;-66
2022/08/15 04:54:16;;;;;;;17.50;11.60;;;;;;;22.17;75.17;99715.48;103455;1278;109849;-66
2022/08/15 04:56:56;;;;;;;14.70;11.60;;;;;;;22.20;75.20;99722.62;103224;1278;139610;-68
2022/08/15 04:59:26;;;;;;;14.90;12.10;;;;;;;22.25;75.27;99723.29;103399;1278;109940;-67
2022/08/15 05:02:23;;;;;;;15.00;11.40;;;;;;;22.34;75.01;99724.17;103313;1278;138749;-67
2022/08/15 05:05:11;;;;;;;13.40;11.00;;;;;;;22.33;74.60;99727.10;103355;1277;95208;-65
2022/08/15 05:07:39;;;;;;;15.20;11.50;;;;;;;22.34;74.63;99727.05;103237;1278;109586;-65
2022/08/15 05:10:28;;;;;;;14.60;11.20;;;;;;;22.35;74.40;99728.45;103307;1277;141273;-67
2022/08/15 05:13:16;;;;;;;14.70;11.60;;;;;;;22.34;74.39;99730.10;103391;1280;108876;-67
2022/08/15 05:15:46;;;;;;;14.70;11.90;;;;;;;22.39;74.26;99732.41;103245;1277;138997;-66
2022/08/15 05:18:31;;;;;;;13.60;11.00;;;;;;;22.49;74.56;99735.52;103412;1278;95228;-66
2022/08/15 05:21:00;;;;;;;15.00;12.00;;;;;;;22.54;74.03;99730.55;103338;1281;139307;-67
2022/08/15 05:23:31;;;;;;;15.80;11.70;;;;;;;22.63;74.05;99729.98;103329;1280;99427;-67
2022/08/15 05:26:12;;;;;;;15.40;11.80;;;;;;;22.76;74.02;99730.30;103822;1280;138555;-66
2022/08/15 05:29:00;;;;;;;15.30;12.10;;;;;;;22.91;73.91;99736.56;103293;1281;95611;-67
2022/08/15 05:31:29;;;;;;;15.60;11.70;;;;;;;22.97;73.20;99736.63;103371;1278;96143;-68
2022/08/15 05:34:01;;;;;;;15.40;12.60;;;;;;;22.94;72.92;99739.06;103314;1278;138540;-67
2022/08/15 05:36:34;;;;;;;14.80;11.80;;;;;;;22.93;73.06;99740.96;103572;1281;98938;-67
2022/08/15 05:39:26;;;;;;;14.10;11.30;;;;;;;22.89;72.82;99744.57;103113;1278;138866;-67
2022/08/15 05:42:10;;;;;;;16.00;11.30;;;;;;;22.86;72.86;99748.38;103449;1278;95348;-67
2022/08/15 05:44:58;;;;;;;14.60;11.00;;;;;;;22.86;72.69;99746.58;103224;1278;139032;-66
2022/08/15 05:47:37;;;;;;;15.10;11.30;;;;;;;22.82;72.61;99747.16;103437;1277;109745;-67
2022/08/15 05:50:32;;;;;;;14.30;11.10;;;;;;;22.80;72.83;99748.95;103277;1278;139033;-66
2022/08/15 05:53:29;;;;;;;14.20;10.80;;;;;;;22.79;72.51;99754.12;103355;1277;108745;-67
2022/08/15 05:56:10;;;;;;;14.30;11.50;;;;;;;22.76;72.64;99761.62;103103;1280;95496;-67
2022/08/15 05:59:01;;;;;;;15.30;11.90;;;;;;;22.78;72.81;99758.56;103345;1280;95250;-67
2022/08/15 06:01:39;;;;;;;14.40;11.80;;;;;;;22.83;73.05;99765.17;103463;1278;110509;-67
2022/08/15 06:04:15;;;;;;;14.60;11.40;;;;;;;22.85;72.49;99764.27;103541;1277;139405;-66
2022/08/15 06:07:05;;;;;;;13.10;11.30;;;;;;;22.84;72.51;99763.45;103343;1277;108840;-67
2022/08/15 06:09:51;;;;;;;16.00;12.20;;;;;;;22.82;72.67;99766.71;103299;1278;138491;-66
2022/08/15 06:12:32;;;;;;;13.70;11.30;;;;;;;22.87;72.85;99764.80;103388;1281;95172;-67
2022/08/15 06:15:10;;;;;;;13.70;11.00;;;;;;;22.97;72.67;99759.80;103332;1277;139338;-68
2022/08/15 06:17:52;;;;;;;13.60;10.80;;;;;;;23.13;71.98;99762.20;103292;1277;99393;-66
2022/08/15 06:20:36;;;;;;;14.60;12.10;;;;;;;23.28;72.07;99761.55;103306;1277;138726;-66
2022/08/15 06:23:33;;;;;;;14.60;11.00;;;;;;;23.52;72.18;99755.95;103407;1278;95500;-66
2022/08/15 06:26:56;;;;;;;14.00;11.10;;;;;;;23.78;71.09;99758.67;103330;1278;95780;-67
2022/08/15 06:29:53;;;;;;;14.90;11.20;;;;;;;23.85;69.69;99759.09;103456;1277;109773;-67
2022/08/15 06:32:34;;;;;;;14.30;11.00;;;;;;;23.85;69.51;99754.05;103528;1277;138724;-66
2022/08/15 06:35:15;;;;;;;14.40;10.40;;;;;;;23.90;69.89;99754.02;103411;1280;108206;-67
2022/08/15 06:38:08;;;;;;;15.10;10.90;;;;;;;23.97;69.45;99753.02;103469;1278;95811;-68
2022/08/15 06:41:27;;;;;;;13.90;11.10;;;;;;;24.02;69.21;99755.46;103301;1278;95211;-66
2022/08/15 06:44:05;;;;;;;13.90;11.30;;;;;;;24.04;69.51;99750.34;103367;1278;109772;-68
2022/08/15 06:46:48;;;;;;;13.10;10.40;;;;;;;24.06;69.45;99746.54;103437;1277;99524;-67
2022/08/15 06:49:22;;;;;;;13.80;10.80;;;;;;;24.10;69.78;99746.93;103360;1278;109002;-68
2022/08/15 06:51:52;;;;;;;13.10;11.20;;;;;;;24.10;69.25;99744.38;103541;1277;139395;-66
2022/08/15 06:54:27;;;;;;;13.30;10.80;;;;;;;24.07;69.38;99749.14;103293;1281;95236;-65
2022/08/15 06:57:20;;;;;;;14.50;10.10;;;;;;;24.15;68.85;99751.65;103305;1277;138736;-68
2022/08/15 07:00:07;;;;;;;14.90;10.90;;;;;;;24.22;68.39;99753.56;103579;1278;99433;-66
2022/08/15 07:03:23;;;;;;;15.10;11.10;;;;;;;24.33;68.90;99751.09;103278;1277;138787;-67
2022/08/15 07:05:55;;;;;;;13.30;11.30;;;;;;;24.44;68.79;99751.16;103259;1277;95315;-66
2022/08/15 07:08:38;;;;;;;13.20;10.90;;;;;;;24.53;68.97;99757.02;103340;1278;139591;-67
2022/08/15 07:11:14;;;;;;;15.10;11.50;;;;;;;24.59;69.08;99755.00;103600;1277;108566;-67
2022/08/15 07:14:08;;;;;;;15.10;11.90;;;;;;;24.62;68.36;99759.23;103444;1278;99556;-67
2022/08/15 07:17:10;;;;;;;14.60;11.90;;;;;;;24.69;68.55;99768.04;103384;1277;109038;-67
2022/08/15 07:19:39;;;;;;;12.90;10.80;;;;;;;24.76;67.58;99768.96;103318;1278;95672;-67
2022/08/15 07:22:44;;;;;;;13.30;10.90;;;;;;;24.73;67.92;99768.05;103371;1278;97374;-67
2022/08/15 07:25:19;;;;;;;13.60;11.60;;;;;;;24.74;67.89;99767.23;103439;1278;109905;-67
2022/08/15 07:28:01;;;;;;;16.40;11.70;;;;;;;24.75;68.17;99771.12;103274;1281;141376;-66
2022/08/15 07:30:55;;;;;;;13.00;10.80;;;;;;;24.85;67.95;99768.27;103280;1278;108714;-67
2022/08/15 07:33:39;;;;;;;15.40;11.60;;;;;;;24.86;67.18;99770.20;103556;1277;138923;-67
2022/08/15 07:36:14;;;;;;;16.00;12.20;;;;;;;24.85;67.64;99774.50;103456;1278;95312;-67
2022/08/15 07:38:58;;;;;;;14.10;11.90;;;;;;;24.87;67.83;99773.54;103209;1278;139822;-66
2022/08/15 07:41:33;;;;;;;15.80;11.80;;;;;;;24.94;67.60;99772.19;103417;1278;98828;-66
2022/08/15 07:44:31;;;;;;;14.10;11.30;;;;;;;24.99;67.84;99763.30;103310;1278;108924;-66
2022/08/15 07:47:12;;;;;;;15.20;12.20;;;;;;;25.07;67.15;99762.95;103553;1277;95344;-67
2022/08/15 07:49:41;;;;;;;14.40;11.70;;;;;;;24.94;67.02;99764.95;103500;1277;95482;-66
2022/08/15 07:52:18;;;;;;;13.70;11.60;;;;;;;24.89;67.14;99763.58;103437;1277;139026;-66
2022/08/15 07:55:17;;;;;;;14.60;12.30;;;;;;;24.90;67.58;99765.34;103380;1277;99310;-67
2022/08/15 07:58:18;;;;;;;15.00;11.60;;;;;;;24.87;67.66;99768.13;103286;1277;138368;-66
2022/08/15 08:01:21;;;;;;;15.10;11.40;;;;;;;24.93;67.55;99771.24;103629;1278;95194;-67
2022/08/15 08:04:05;;;;;;;14.30;11.80;;;;;;;25.00;67.80;99766.91;103185;1278;139226;-66
2022/08/15 08:06:49;;;;;;;14.40;11.60;;;;;;;25.08;67.27;99766.52;103499;1277;110701;-68
2022/08/15 08:09:37;;;;;;;15.20;12.10;;;;;;;25.13;67.80;99763.21;103432;1278;138434;-68
2022/08/15 08:12:17;;;;;;;13.20;11.10;;;;;;;25.26;67.71;99764.33;103503;1277;108682;-66
2022/08/15 08:15:32;;;;;;;14.50;12.20;;;;;;;25.29;66.89;99760.06;103264;1277;138793;-67
2022/08/15 08:18:35;;;;;;;16.80;12.50;;;;;;;25.33;66.65;99761.52;103287;1278;96374;-67
2022/08/15 08:21:13;;;;;;;14.50;12.30;;;;;;;25.44;66.37;99763.72;103479;1277;139099;-67
2022/08/15 08:24:01;;;;;;;15.60;11.80;;;;;;;25.66;66.47;99763.00;103356;1277;99391;-66
2022/08/15 08:26:57;;;;;;;13.80;11.70;;;;;;;25.79;65.31;99759.98;103518;1277;138816;-68
2022/08/15 08:29:45;;;;;;;13.50;11.80;;;;;;;25.79;65.77;99767.67;103353;1278;95775;-66
2022/08/15 08:32:27;;;;;;;15.30;12.50;;;;;;;25.68;65.13;99767.36;103687;1278;138496;-66
2022/08/15 08:35:14;;;;;;;15.00;11.80;;;;;;;25.55;65.69;99763.20;103378;1277;109880;-67
2022/08/15 08:37:52;;;;;;;15.50;12.10;;;;;;;25.54;65.85;99762.50;103483;1277;100102;-67
2022/08/15 08:44:04;;;;;;;14.40;11.40;;;;;;;25.57;66.20;99767.92;103395;1277;97455;-66
2022/08/15 08:46:58;;;;;;;14.80;11.60;;;;;;;25.50;66.07;99771.45;103491;1277;95226;-68
2022/08/15 08:49:40;;;;;;;16.90;11.90;;;;;;;25.42;65.87;99771.39;103554;1277;109887;-68
2022/08/15 08:52:32;;;;;;;15.10;12.10;;;;;;;25.38;66.07;99772.30;103298;1279;138803;-66
2022/08/15 08:55:27;;;;;;;16.70;11.80;;;;;;;25.38;66.71;99774.27;103444;1277;108786;-68
2022/08/15 08:58:20;;;;;;;13.50;11.20;;;;;;;25.46;66.45;99775.10;103262;1277;139805;-67
2022/08/15 09:01:14;;;;;;;14.20;11.30;;;;;;;25.48;65.53;99780.18;103443;1278;96464;-67
2022/08/15 09:03:51;;;;;;;15.70;12.40;;;;;;;25.52;65.73;99781.84;103369;1277;138835;-66
2022/08/15 09:06:29;;;;;;;15.10;11.80;;;;;;;25.49;65.52;99783.38;103463;1278;99748;-67
2022/08/15 09:09:18;;;;;;;16.20;12.80;;;;;;;25.51;65.87;99782.38;103341;1277;138906;-66
2022/08/15 09:15:06;;;;;;;15.50;12.20;;;;;;;26.10;63.28;99777.90;103156;1278;138667;-66
2022/08/15 09:17:48;;;;;;;14.50;11.40;;;;;;;26.30;64.05;99775.25;102993;1277;109790;-67
2022/08/15 09:20:39;;;;;;;14.40;11.40;;;;;;;26.51;63.90;99777.36;102871;1277;139260;-66
2022/08/15 09:23:11;;;;;;;12.90;11.00;;;;;;;26.78;63.46;99775.12;103271;1277;108819;-66
2022/08/15 09:25:53;;;;;;;13.10;11.40;;;;;;;26.98;62.12;99780.84;103604;1277;95260;-66
2022/08/15 09:28:34;;;;;;;14.50;11.40;;;;;;;27.10;60.93;99776.01;103336;1277;138450;-66
2022/08/15 09:31:12;;;;;;;14.70;11.30;;;;;;;27.13;61.64;99779.69;103554;1277;108454;-66
2022/08/15 09:33:52;;;;;;;13.40;11.60;;;;;;;27.62;60.07;99780.63;103341;1277;138534;-66
2022/08/15 09:36:38;;;;;;;12.00;10.70;;;;;;;28.09;58.78;99779.61;103344;1277;108876;-66
2022/08/15 09:39:51;;;;;;;12.60;10.60;;;;;;;28.38;56.72;99782.81;103376;1278;138866;-66
2022/08/15 09:42:49;;;;;;;12.80;10.80;;;;;;;28.75;56.67;99772.84;103298;1278;95776;-66
2022/08/15 09:45:37;;;;;;;12.70;10.70;;;;;;;28.97;56.05;99764.38;103363;1277;138826;-66
2022/08/15 09:48:57;;;;;;;16.00;11.10;;;;;;;29.05;55.48;99760.98;103252;1277;99397;-66
2022/08/15 09:52:00;;;;;;;12.90;10.30;;;;;;;29.16;55.52;99755.01;103696;1277;139635;-66
2022/08/15 09:54:41;;;;;;;15.40;11.70;;;;;;;29.52;56.00;99747.81;103237;1278;95253;-67
2022/08/15 09:57:18;;;;;;;12.80;10.20;;;;;;;30.10;54.99;99743.95;103312;1277;138802;-66
2022/08/15 10:00:00;;;;;;;13.40;10.80;;;;;;;30.23;52.16;99740.94;103345;1278;109782;-66
2022/08/15 10:02:38;;;;;;;13.30;10.70;;;;;;;30.25;52.82;99737.21;102432;1278;1348280;-66
2022/08/15 10:05:36;;;;;;;13.90;10.40;;;;;;;30.24;52.63;99731.69;103304;1277;108811;-67
2022/08/15 10:08:06;;;;;;;19.90;17.80;;;;;;;30.00;52.48;99738.84;103788;1277;95594;-65
2022/08/15 10:10:34;;;;;;;14.20;11.20;;;;;;;29.97;51.85;99733.98;103328;1277;138518;-66
2022/08/15 10:13:06;;;;;;;12.70;10.30;;;;;;;30.05;52.38;99734.11;103339;1277;109724;-66
2022/08/15 10:15:41;;;;;;;14.00;11.10;;;;;;;30.00;52.62;99730.48;103373;1278;139351;-66
2022/08/15 10:18:30;;;;;;;13.70;10.70;;;;;;;30.11;53.59;99726.19;103474;1278;109485;-66
2022/08/15 10:20:57;;;;;;;14.20;11.90;;;;;;;30.46;53.78;99724.95;103270;1277;138805;-66
2022/08/15 10:23:42;;;;;;;13.00;10.80;;;;;;;30.98;51.96;99719.17;103632;1277;95622;-67
2022/08/15 10:26:31;;;;;;;12.30;10.80;;;;;;;31.20;51.22;99724.44;103352;1277;138692;-66
2022/08/15 10:29:08;;;;;;;12.60;9.20;;;;;;;31.29;50.35;99723.28;103306;1279;99752;-66
2022/08/15 10:31:53;;;;;;;12.80;9.50;;;;;;;31.56;48.52;99730.20;103274;1280;108891;-66
2022/08/15 10:35:15;;;;;;;12.10;9.80;;;;;;;32.27;48.75;99731.88;103276;1280;95791;-66
2022/08/15 10:37:51;;;;;;;12.10;9.50;;;;;;;32.95;46.97;99727.50;103513;1279;95781;-64
2022/08/15 10:40:36;;;;;;;10.60;8.90;;;;;;;32.77;46.15;99727.86;103070;1279;138279;-66
2022/08/15 10:43:29;;;;;;;15.10;12.10;;;;;;;32.91;45.45;99727.05;103075;1278;98450;-67
2022/08/15 10:46:26;;;;;;;12.60;9.50;;;;;;;33.46;44.57;99730.30;104188;1277;138301;-65
2022/08/15 10:49:30;;;;;;;11.50;9.20;;;;;;;33.77;44.36;99728.58;104339;1277;95457;-68
2022/08/15 10:52:01;;;;;;;12.10;9.20;;;;;;;34.06;43.42;99729.41;102901;1277;138781;-68
2022/08/15 10:55:05;;;;;;;11.80;9.50;;;;;;;34.41;42.56;99731.10;102997;1277;109311;-66
2022/08/15 10:57:48;;;;;;;12.70;9.70;;;;;;;34.51;42.81;99736.67;102895;1277;138057;-67
2022/08/15 11:00:29;;;;;;;11.10;9.70;;;;;;;33.72;44.30;99736.44;104017;1277;107904;-66
2022/08/15 11:03:34;;;;;;;14.80;10.20;;;;;;;32.85;45.28;99737.05;103061;1278;141596;-68
2022/08/15 11:06:23;;;;;;;10.10;8.30;;;;;;;31.85;46.76;99739.18;103087;1277;95224;-67
2022/08/15 11:09:28;;;;;;;12.70;10.30;;;;;;;30.95;47.59;99741.42;103024;1277;138620;-67
2022/08/15 11:12:03;;;;;;;13.20;10.40;;;;;;;30.11;49.99;99740.16;102562;1278;99916;-68
2022/08/15 11:14:43;;;;;;;11.90;10.10;;;;;;;29.64;51.22;99740.34;102843;1277;138481;-68
2022/08/15 11:17:20;;;;;;;12.90;10.90;;;;;;;29.22;52.47;99736.80;103232;1277;95765;-67
2022/08/15 11:19:51;;;;;;;13.50;11.30;;;;;;;28.90;53.38;99741.19;104503;1277;95218;-67
2022/08/15 11:22:48;;;;;;;14.70;11.50;;;;;;;28.63;54.25;99742.74;105584;1277;109747;-68
2022/08/15 11:25:27;;;;;;;14.40;11.60;;;;;;;28.47;55.05;99741.25;104405;1277;98546;-67
2022/08/15 11:27:58;;;;;;;15.30;11.80;;;;;;;28.39;55.68;99742.31;103320;1277;138669;-67
2022/08/15 11:30:29;;;;;;;26.60;23.50;;;;;;;28.36;56.08;99743.79;103234;1277;95290;-67
2022/08/15 11:33:27;;;;;;;13.50;11.00;;;;;;;28.48;56.84;99740.18;102930;1277;139188;-69
2022/08/15 11:36:26;;;;;;;13.20;9.90;;;;;;;28.50;55.41;99736.70;103095;1277;110264;-67
2022/08/15 11:39:02;;;;;;;13.80;10.90;;;;;;;28.43;56.10;99733.91;103110;1278;139234;-65
2022/08/15 11:41:52;;;;;;;13.10;11.00;;;;;;;28.51;56.38;99730.35;103098;1278;109127;-66
2022/08/15 11:44:57;;;;;;;15.10;10.00;;;;;;;28.51;56.18;99730.90;103103;1278;139506;-66
2022/08/15 11:47:29;;;;;;;13.90;10.90;;;;;;;28.54;56.29;99728.42;102803;1277;95780;-67
2022/08/15 11:50:02;;;;;;;13.90;10.50;;;;;;;28.60;56.49;99729.21;102937;1278;109752;-67
2022/08/15 11:52:46;;;;;;;13.50;10.40;;;;;;;28.56;56.62;99727.30;104238;1277;138105;-66
2022/08/15 11:55:43;;;;;;;13.60;9.30;;;;;;;28.74;56.39;99723.21;103412;1277;108827;-66
2022/08/15 11:58:14;;;;;;;13.10;10.10;;;;;;;28.80;55.42;99724.54;103250;1277;138700;-66
2022/08/15 12:00:52;;;;;;;11.90;9.20;;;;;;;28.76;55.80;99724.48;103282;1277;95793;-68
2022/08/15 12:03:22;;;;;;;12.40;10.00;;;;;;;28.77;55.12;99718.04;103840;1277;139281;-66
2022/08/15 12:06:13;;;;;;;12.50;9.70;;;;;;;28.77;54.80;99720.02;103290;1279;99764;-66
2022/08/15 12:09:11;;;;;;;13.50;9.10;;;;;;;28.79;54.23;99725.67;103338;1278;138370;-67
2022/08/15 12:11:45;;;;;;;12.60;8.10;;;;;;;28.76;53.33;99718.83;103568;1277;95205;-66
2022/08/15 12:14:23;;;;;;;11.10;8.40;;;;;;;28.70;53.58;99720.29;103271;1277;138459;-67
2022/08/15 12:17:05;;;;;;;11.50;7.80;;;;;;;28.65;52.68;99715.66;103441;1277;109318;-67
2022/08/15 12:19:46;;;;;;;12.10;8.50;;;;;;;28.54;53.28;99718.11;103360;1277;99315;-67